sensor_id;sensor_type;location;lat;lon;timestamp;pressure;altitude;pressure_sealevel;temperature;humidity
9439;BME280;5176;42.622;25.386;2023-05-20T00:01:06;97450.53;;;15.08;99.22
9439;BME280;5176;42.622;25.386;2023-05-20T00:03:34;97454.97;;;15.19;100.00
9439;BME280;5176;42.622;25.386;2023-05-20T00:06:01;97450.75;;;15.16;100.00
9439;BME280;5176;42.622;25.386;2023-05-20T00:08:28;97444.53;;;15.17;99.75
9439;BME280;5176;42.622;25.386;2023-05-20T00:10:55;97448.00;;;15.18;99.09
9439;BME280;5176;42.622;25.386;2023-05-20T00:13:22;97442.63;;;15.19;100.00
9439;BME280;5176;42.622;25.386;2023-05-20T00:15:51;97447.66;;;15.22;100.00
9439;BME280;5176;42.622;25.386;2023-05-20T00:18:18;97440.34;;;15.26;100.00
9439;BME280;5176;42.622;25.386;2023-05-20T00:20:46;97428.31;;;15.22;100.00
9439;BME280;5176;42.622;25.386;2023-05-20T00:23:13;97431.81;;;15.22;100.00
9439;BME280;5176;42.622;25.386;2023-05-20T00:25:40;97433.16;;;15.06;100.00
9439;BME280;5176;42.622;25.386;2023-05-20T00:28:07;97413.69;;;14.95;95.40
9439;BME280;5176;42.622;25.386;2023-05-20T00:30:38;97428.06;;;15.36;89.82
9439;BME280;5176;42.622;25.386;2023-05-20T00:33:07;97428.03;;;15.59;85.74
9439;BME280;5176;42.622;25.386;2023-05-20T00:35:34;97427.16;;;15.69;85.84
9439;BME280;5176;42.622;25.386;2023-05-20T00:38:01;97434.38;;;15.78;84.80
9439;BME280;5176;42.622;25.386;2023-05-20T00:40:29;97441.75;;;15.85;84.79
9439;BME280;5176;42.622;25.386;2023-05-20T00:42:56;97440.56;;;15.89;83.99
9439;BME280;5176;42.622;25.386;2023-05-20T00:45:23;97433.72;;;15.86;82.52
9439;BME280;5176;42.622;25.386;2023-05-20T00:47:51;97442.56;;;15.96;81.89
9439;BME280;5176;42.622;25.386;2023-05-20T00:50:23;97431.63;;;16.01;82.51
9439;BME280;5176;42.622;25.386;2023-05-20T00:52:50;97428.59;;;16.05;82.17
9439;BME280;5176;42.622;25.386;2023-05-20T00:55:20;97413.81;;;16.03;82.19
9439;BME280;5176;42.622;25.386;2023-05-20T00:57:47;97407.81;;;16.01;82.27
9439;BME280;5176;42.622;25.386;2023-05-20T01:00:15;97415.38;;;16.05;81.83
9439;BME280;5176;42.622;25.386;2023-05-20T01:02:42;97406.22;;;16.10;80.45
9439;BME280;5176;42.622;25.386;2023-05-20T01:05:09;97410.53;;;16.11;80.65
9439;BME280;5176;42.622;25.386;2023-05-20T01:07:38;97407.78;;;16.12;80.84
9439;BME280;5176;42.622;25.386;2023-05-20T01:10:06;97405.38;;;16.09;80.40
9439;BME280;5176;42.622;25.386;2023-05-20T01:12:36;97402.72;;;16.09;80.31
9439;BME280;5176;42.622;25.386;2023-05-20T01:15:08;97397.06;;;16.14;80.15
9439;BME280;5176;42.622;25.386;2023-05-20T01:17:38;97394.28;;;16.15;80.72
9439;BME280;5176;42.622;25.386;2023-05-20T01:20:08;97388.31;;;16.13;80.43
9439;BME280;5176;42.622;25.386;2023-05-20T01:22:38;97382.88;;;16.15;80.14
9439;BME280;5176;42.622;25.386;2023-05-20T01:25:06;97389.78;;;16.06;82.11
9439;BME280;5176;42.622;25.386;2023-05-20T01:27:34;97380.19;;;16.05;81.16
9439;BME280;5176;42.622;25.386;2023-05-20T01:30:02;97366.34;;;16.01;81.22
9439;BME280;5176;42.622;25.386;2023-05-20T01:32:33;97373.19;;;16.04;81.68
9439;BME280;5176;42.622;25.386;2023-05-20T01:35:02;97367.38;;;16.10;80.90
9439;BME280;5176;42.622;25.386;2023-05-20T01:37:31;97361.59;;;16.16;79.52
9439;BME280;5176;42.622;25.386;2023-05-20T01:40:04;97351.66;;;16.08;80.87
9439;BME280;5176;42.622;25.386;2023-05-20T01:42:34;97351.13;;;16.15;80.46
9439;BME280;5176;42.622;25.386;2023-05-20T01:45:03;97349.00;;;16.08;81.12
9439;BME280;5176;42.622;25.386;2023-05-20T01:47:30;97350.69;;;16.10;81.16
9439;BME280;5176;42.622;25.386;2023-05-20T01:49:58;97358.38;;;16.13;80.13
9439;BME280;5176;42.622;25.386;2023-05-20T01:52:25;97356.63;;;16.23;78.27
9439;BME280;5176;42.622;25.386;2023-05-20T01:54:53;97354.56;;;16.26;78.61
9439;BME280;5176;42.622;25.386;2023-05-20T01:57:22;97356.09;;;16.29;77.91
9439;BME280;5176;42.622;25.386;2023-05-20T01:59:49;97346.34;;;16.29;77.40
9439;BME280;5176;42.622;25.386;2023-05-20T02:02:17;97347.63;;;16.35;78.04
9439;BME280;5176;42.622;25.386;2023-05-20T02:04:46;97337.88;;;16.35;77.53
9439;BME280;5176;42.622;25.386;2023-05-20T02:07:14;97351.25;;;16.34;76.64
9439;BME280;5176;42.622;25.386;2023-05-20T02:09:41;97353.06;;;16.33;76.58
9439;BME280;5176;42.622;25.386;2023-05-20T02:12:09;97362.28;;;16.39;76.61
9439;BME280;5176;42.622;25.386;2023-05-20T02:14:43;97365.88;;;16.38;75.89
9439;BME280;5176;42.622;25.386;2023-05-20T02:17:11;97359.19;;;16.34;76.59
9439;BME280;5176;42.622;25.386;2023-05-20T02:19:39;97352.22;;;16.33;77.00
9439;BME280;5176;42.622;25.386;2023-05-20T02:22:06;97360.72;;;16.37;76.47
9439;BME280;5176;42.622;25.386;2023-05-20T02:24:33;97364.63;;;16.32;76.44
9439;BME280;5176;42.622;25.386;2023-05-20T02:27:00;97372.16;;;16.37;75.88
9439;BME280;5176;42.622;25.386;2023-05-20T02:29:29;97372.41;;;16.34;76.65
9439;BME280;5176;42.622;25.386;2023-05-20T02:31:58;97371.31;;;16.37;75.57
9439;BME280;5176;42.622;25.386;2023-05-20T02:34:26;97363.66;;;16.33;75.81
9439;BME280;5176;42.622;25.386;2023-05-20T02:36:54;97341.41;;;16.15;76.04
9439;BME280;5176;42.622;25.386;2023-05-20T02:39:22;97376.34;;;16.40;75.63
9439;BME280;5176;42.622;25.386;2023-05-20T02:41:49;97387.03;;;16.38;76.94
9439;BME280;5176;42.622;25.386;2023-05-20T02:44:16;97377.56;;;16.35;76.96
9439;BME280;5176;42.622;25.386;2023-05-20T02:46:43;97377.44;;;16.37;76.76
9439;BME280;5176;42.622;25.386;2023-05-20T02:49:12;97372.28;;;16.35;76.42
9439;BME280;5176;42.622;25.386;2023-05-20T02:51:39;97369.31;;;16.29;76.85
9439;BME280;5176;42.622;25.386;2023-05-20T02:54:06;97360.28;;;16.31;77.12
9439;BME280;5176;42.622;25.386;2023-05-20T02:56:33;97368.16;;;16.22;78.10
9439;BME280;5176;42.622;25.386;2023-05-20T02:59:01;97357.84;;;16.19;77.80
9439;BME280;5176;42.622;25.386;2023-05-20T03:01:29;97352.28;;;16.22;78.25
9439;BME280;5176;42.622;25.386;2023-05-20T03:03:58;97356.28;;;16.16;78.68
9439;BME280;5176;42.622;25.386;2023-05-20T03:06:27;97351.69;;;16.18;78.10
9439;BME280;5176;42.622;25.386;2023-05-20T03:08:56;97347.00;;;16.22;77.04
9439;BME280;5176;42.622;25.386;2023-05-20T03:11:24;97345.47;;;16.19;77.77
9439;BME280;5176;42.622;25.386;2023-05-20T03:13:58;97347.28;;;16.19;77.44
9439;BME280;5176;42.622;25.386;2023-05-20T03:16:26;97342.56;;;16.22;77.54
9439;BME280;5176;42.622;25.386;2023-05-20T03:18:53;97343.38;;;16.23;77.99
9439;BME280;5176;42.622;25.386;2023-05-20T03:21:21;97348.53;;;16.24;77.04
9439;BME280;5176;42.622;25.386;2023-05-20T03:23:51;97349.13;;;16.28;77.32
9439;BME280;5176;42.622;25.386;2023-05-20T03:26:18;97356.63;;;16.23;77.95
9439;BME280;5176;42.622;25.386;2023-05-20T03:28:46;97355.06;;;16.20;78.86
9439;BME280;5176;42.622;25.386;2023-05-20T03:31:13;97361.44;;;16.18;78.67
9439;BME280;5176;42.622;25.386;2023-05-20T03:33:41;97366.22;;;16.24;78.18
9439;BME280;5176;42.622;25.386;2023-05-20T03:36:08;97363.47;;;16.25;78.68
9439;BME280;5176;42.622;25.386;2023-05-20T03:38:35;97370.94;;;16.20;77.68
9439;BME280;5176;42.622;25.386;2023-05-20T03:41:04;97378.53;;;16.34;77.18
9439;BME280;5176;42.622;25.386;2023-05-20T03:43:31;97378.03;;;16.41;75.19
9439;BME280;5176;42.622;25.386;2023-05-20T03:45:58;97355.44;;;16.37;74.98
9439;BME280;5176;42.622;25.386;2023-05-20T03:48:26;97372.84;;;16.60;75.15
9439;BME280;5176;42.622;25.386;2023-05-20T03:50:53;97367.53;;;16.60;77.47
9439;BME280;5176;42.622;25.386;2023-05-20T03:53:20;97360.16;;;16.63;76.36
9439;BME280;5176;42.622;25.386;2023-05-20T03:55:47;97365.47;;;16.63;73.98
9439;BME280;5176;42.622;25.386;2023-05-20T03:58:16;97366.03;;;16.67;73.65
9439;BME280;5176;42.622;25.386;2023-05-20T04:00:45;97374.19;;;16.75;73.37
9439;BME280;5176;42.622;25.386;2023-05-20T04:03:13;97379.09;;;16.80;73.56
9439;BME280;5176;42.622;25.386;2023-05-20T04:05:40;97388.56;;;16.82;73.12
9439;BME280;5176;42.622;25.386;2023-05-20T04:08:08;97390.53;;;16.80;74.06
9439;BME280;5176;42.622;25.386;2023-05-20T04:10:40;97393.88;;;16.82;74.39
9439;BME280;5176;42.622;25.386;2023-05-20T04:13:09;97411.28;;;16.85;75.82
9439;BME280;5176;42.622;25.386;2023-05-20T04:15:38;97397.19;;;16.84;74.57
9439;BME280;5176;42.622;25.386;2023-05-20T04:18:06;97409.53;;;16.95;70.42
9439;BME280;5176;42.622;25.386;2023-05-20T04:20:33;97407.63;;;17.07;71.97
9439;BME280;5176;42.622;25.386;2023-05-20T04:23:00;97411.56;;;17.12;71.90
9439;BME280;5176;42.622;25.386;2023-05-20T04:25:27;97403.19;;;17.17;72.08
9439;BME280;5176;42.622;25.386;2023-05-20T04:27:55;97412.16;;;17.26;71.27
9439;BME280;5176;42.622;25.386;2023-05-20T04:30:22;97413.69;;;17.28;69.81
9439;BME280;5176;42.622;25.386;2023-05-20T04:32:51;97420.25;;;17.34;70.54
9439;BME280;5176;42.622;25.386;2023-05-20T04:35:19;97421.94;;;17.44;70.28
9439;BME280;5176;42.622;25.386;2023-05-20T04:37:49;97422.13;;;17.53;70.43
9439;BME280;5176;42.622;25.386;2023-05-20T04:40:18;97425.91;;;17.60;70.25
9439;BME280;5176;42.622;25.386;2023-05-20T04:42:47;97425.47;;;17.64;70.06
9439;BME280;5176;42.622;25.386;2023-05-20T04:45:14;97420.59;;;17.60;69.28
9439;BME280;5176;42.622;25.386;2023-05-20T04:47:42;97429.78;;;17.56;70.99
9439;BME280;5176;42.622;25.386;2023-05-20T04:50:12;97420.56;;;17.50;71.13
9439;BME280;5176;42.622;25.386;2023-05-20T04:52:39;97427.25;;;17.44;70.65
9439;BME280;5176;42.622;25.386;2023-05-20T04:55:09;97424.72;;;17.33;70.05
9439;BME280;5176;42.622;25.386;2023-05-20T04:57:36;97429.72;;;17.36;69.36
9439;BME280;5176;42.622;25.386;2023-05-20T05:00:07;97437.28;;;17.41;69.54
9439;BME280;5176;42.622;25.386;2023-05-20T05:02:35;97433.66;;;17.42;69.17
9439;BME280;5176;42.622;25.386;2023-05-20T05:05:03;97437.00;;;17.44;68.93
9439;BME280;5176;42.622;25.386;2023-05-20T05:07:32;97429.06;;;17.44;68.46
9439;BME280;5176;42.622;25.386;2023-05-20T05:09:59;97438.66;;;17.45;68.59
9439;BME280;5176;42.622;25.386;2023-05-20T05:12:26;97445.38;;;17.49;68.08
9439;BME280;5176;42.622;25.386;2023-05-20T05:14:54;97437.19;;;17.52;68.77
9439;BME280;5176;42.622;25.386;2023-05-20T05:17:23;97439.84;;;17.52;69.25
9439;BME280;5176;42.622;25.386;2023-05-20T05:19:50;97430.75;;;17.55;69.91
9439;BME280;5176;42.622;25.386;2023-05-20T05:22:17;97425.31;;;17.56;70.45
9439;BME280;5176;42.622;25.386;2023-05-20T05:24:46;97428.41;;;17.61;69.25
9439;BME280;5176;42.622;25.386;2023-05-20T05:27:14;97436.78;;;17.66;68.64
9439;BME280;5176;42.622;25.386;2023-05-20T05:29:41;97443.75;;;17.67;69.36
9439;BME280;5176;42.622;25.386;2023-05-20T05:32:08;97438.59;;;17.66;70.44
9439;BME280;5176;42.622;25.386;2023-05-20T05:34:36;97449.06;;;17.67;71.63
9439;BME280;5176;42.622;25.386;2023-05-20T05:37:03;97454.06;;;17.70;72.04
9439;BME280;5176;42.622;25.386;2023-05-20T05:39:30;97452.19;;;17.73;67.71
9439;BME280;5176;42.622;25.386;2023-05-20T05:42:00;97451.91;;;17.76;68.68
9439;BME280;5176;42.622;25.386;2023-05-20T05:44:28;97449.81;;;17.79;70.72
9439;BME280;5176;42.622;25.386;2023-05-20T05:46:55;97452.75;;;17.86;69.30
9439;BME280;5176;42.622;25.386;2023-05-20T05:49:22;97444.66;;;17.87;70.09
9439;BME280;5176;42.622;25.386;2023-05-20T05:51:50;97453.44;;;17.97;68.73
9439;BME280;5176;42.622;25.386;2023-05-20T05:54:18;97450.69;;;17.99;68.29
9439;BME280;5176;42.622;25.386;2023-05-20T05:56:46;97457.50;;;18.11;69.18
9439;BME280;5176;42.622;25.386;2023-05-20T05:59:14;97463.81;;;18.20;68.84
9439;BME280;5176;42.622;25.386;2023-05-20T06:01:42;97445.50;;;18.27;67.04
9439;BME280;5176;42.622;25.386;2023-05-20T06:04:09;97457.91;;;18.36;68.25
9439;BME280;5176;42.622;25.386;2023-05-20T06:06:37;97459.03;;;18.43;67.75
9439;BME280;5176;42.622;25.386;2023-05-20T06:09:04;97462.94;;;18.48;68.15
9439;BME280;5176;42.622;25.386;2023-05-20T06:11:31;97469.66;;;18.52;70.33
9439;BME280;5176;42.622;25.386;2023-05-20T06:13:59;97482.75;;;18.64;69.21
9439;BME280;5176;42.622;25.386;2023-05-20T06:16:28;97483.88;;;18.61;67.82
9439;BME280;5176;42.622;25.386;2023-05-20T06:18:55;97491.53;;;18.64;69.38
9439;BME280;5176;42.622;25.386;2023-05-20T06:21:23;97489.59;;;18.57;68.86
9439;BME280;5176;42.622;25.386;2023-05-20T06:23:50;97487.38;;;18.52;66.30
9439;BME280;5176;42.622;25.386;2023-05-20T06:26:17;97492.69;;;18.52;67.57
9439;BME280;5176;42.622;25.386;2023-05-20T06:28:44;97490.03;;;18.42;69.11
9439;BME280;5176;42.622;25.386;2023-05-20T06:31:12;97496.34;;;18.41;66.97
9439;BME280;5176;42.622;25.386;2023-05-20T06:33:41;97490.72;;;18.44;67.25
9439;BME280;5176;42.622;25.386;2023-05-20T06:36:08;97479.13;;;18.74;67.47
9439;BME280;5176;42.622;25.386;2023-05-20T06:38:36;97479.41;;;19.18;64.92
9439;BME280;5176;42.622;25.386;2023-05-20T06:41:03;97468.75;;;19.55;64.60
9439;BME280;5176;42.622;25.386;2023-05-20T06:43:31;97451.81;;;19.84;63.56
9439;BME280;5176;42.622;25.386;2023-05-20T06:45:59;97453.94;;;19.98;63.10
9439;BME280;5176;42.622;25.386;2023-05-20T06:48:26;97452.75;;;20.10;61.49
9439;BME280;5176;42.622;25.386;2023-05-20T06:50:55;97453.34;;;20.22;61.92
9439;BME280;5176;42.622;25.386;2023-05-20T06:53:22;97461.84;;;20.44;62.61
9439;BME280;5176;42.622;25.386;2023-05-20T06:55:50;97461.81;;;20.53;60.86
9439;BME280;5176;42.622;25.386;2023-05-20T06:58:20;97466.41;;;20.69;61.63
9439;BME280;5176;42.622;25.386;2023-05-20T07:00:47;97466.41;;;20.69;59.11
9439;BME280;5176;42.622;25.386;2023-05-20T07:03:14;97462.78;;;20.52;59.79
9439;BME280;5176;42.622;25.386;2023-05-20T07:05:42;97471.38;;;20.46;60.18
9439;BME280;5176;42.622;25.386;2023-05-20T07:08:10;97469.84;;;20.26;59.19
9439;BME280;5176;42.622;25.386;2023-05-20T07:10:37;97458.22;;;20.09;62.47
9439;BME280;5176;42.622;25.386;2023-05-20T07:13:05;97468.09;;;20.17;62.34
9439;BME280;5176;42.622;25.386;2023-05-20T07:15:32;97457.78;;;20.13;61.35
9439;BME280;5176;42.622;25.386;2023-05-20T07:17:59;97469.63;;;20.19;62.38
9439;BME280;5176;42.622;25.386;2023-05-20T07:20:27;97476.16;;;20.42;60.77
9439;BME280;5176;42.622;25.386;2023-05-20T07:22:54;97473.34;;;20.62;59.66
9439;BME280;5176;42.622;25.386;2023-05-20T07:25:22;97469.19;;;20.85;60.44
9439;BME280;5176;42.622;25.386;2023-05-20T07:27:50;97477.59;;;20.99;58.85
9439;BME280;5176;42.622;25.386;2023-05-20T07:30:17;97486.56;;;21.23;57.59
9439;BME280;5176;42.622;25.386;2023-05-20T07:32:44;97489.84;;;21.35;57.78
9439;BME280;5176;42.622;25.386;2023-05-20T07:35:12;97496.81;;;21.28;58.00
9439;BME280;5176;42.622;25.386;2023-05-20T07:37:39;97498.69;;;20.92;58.58
9439;BME280;5176;42.622;25.386;2023-05-20T07:40:08;97502.81;;;20.60;59.16
9439;BME280;5176;42.622;25.386;2023-05-20T07:42:37;97499.28;;;20.42;59.16
9439;BME280;5176;42.622;25.386;2023-05-20T07:45:06;97507.13;;;20.44;60.24
9439;BME280;5176;42.622;25.386;2023-05-20T07:47:33;97503.94;;;20.22;61.10
9439;BME280;5176;42.622;25.386;2023-05-20T07:50:01;97504.53;;;20.34;62.78
9439;BME280;5176;42.622;25.386;2023-05-20T07:52:28;97506.16;;;20.45;62.17
9439;BME280;5176;42.622;25.386;2023-05-20T07:54:55;97508.41;;;20.22;62.65
9439;BME280;5176;42.622;25.386;2023-05-20T07:57:23;97510.22;;;20.03;63.16
9439;BME280;5176;42.622;25.386;2023-05-20T07:59:52;97505.13;;;20.10;63.29
9439;BME280;5176;42.622;25.386;2023-05-20T08:02:19;97500.97;;;20.07;60.98
9439;BME280;5176;42.622;25.386;2023-05-20T08:04:46;97506.28;;;20.43;62.97
9439;BME280;5176;42.622;25.386;2023-05-20T08:07:13;97493.16;;;20.85;59.49
9439;BME280;5176;42.622;25.386;2023-05-20T08:09:40;97500.16;;;21.12;60.77
9439;BME280;5176;42.622;25.386;2023-05-20T08:12:08;97507.47;;;21.10;59.49
9439;BME280;5176;42.622;25.386;2023-05-20T08:14:35;97517.28;;;21.02;59.67
9439;BME280;5176;42.622;25.386;2023-05-20T08:17:04;97511.41;;;20.98;60.80
9439;BME280;5176;42.622;25.386;2023-05-20T08:19:31;97514.91;;;20.99;59.76
9439;BME280;5176;42.622;25.386;2023-05-20T08:21:58;97515.53;;;20.92;58.93
9439;BME280;5176;42.622;25.386;2023-05-20T08:24:26;97525.34;;;20.92;59.76
9439;BME280;5176;42.622;25.386;2023-05-20T08:26:53;97523.88;;;20.98;58.36
9439;BME280;5176;42.622;25.386;2023-05-20T08:29:20;97510.84;;;20.86;58.97
9439;BME280;5176;42.622;25.386;2023-05-20T08:31:48;97521.56;;;20.77;58.98
9439;BME280;5176;42.622;25.386;2023-05-20T08:34:19;97512.16;;;20.64;61.16
9439;BME280;5176;42.622;25.386;2023-05-20T08:36:47;97523.28;;;20.60;59.89
9439;BME280;5176;42.622;25.386;2023-05-20T08:39:14;97527.19;;;20.38;56.45
9439;BME280;5176;42.622;25.386;2023-05-20T08:41:41;97514.34;;;20.33;56.33
9439;BME280;5176;42.622;25.386;2023-05-20T08:44:09;97512.22;;;20.37;56.47
9439;BME280;5176;42.622;25.386;2023-05-20T08:46:37;97520.44;;;20.44;57.21
9439;BME280;5176;42.622;25.386;2023-05-20T08:49:05;97516.53;;;20.38;59.32
9439;BME280;5176;42.622;25.386;2023-05-20T08:51:35;97520.94;;;20.11;54.42
9439;BME280;5176;42.622;25.386;2023-05-20T08:54:03;97500.81;;;20.09;56.13
9439;BME280;5176;42.622;25.386;2023-05-20T08:56:31;97509.19;;;20.14;58.06
9439;BME280;5176;42.622;25.386;2023-05-20T08:58:59;97506.72;;;20.03;55.69
9439;BME280;5176;42.622;25.386;2023-05-20T09:01:27;97503.16;;;19.94;56.27
9439;BME280;5176;42.622;25.386;2023-05-20T09:03:54;97490.53;;;19.96;57.75
9439;BME280;5176;42.622;25.386;2023-05-20T09:06:22;97501.00;;;19.98;57.95
9439;BME280;5176;42.622;25.386;2023-05-20T09:08:51;97490.09;;;20.01;59.97
9439;BME280;5176;42.622;25.386;2023-05-20T09:11:18;97491.59;;;20.03;59.42
9439;BME280;5176;42.622;25.386;2023-05-20T09:13:46;97481.03;;;19.94;60.09
9439;BME280;5176;42.622;25.386;2023-05-20T09:16:13;97480.47;;;19.90;57.53
9439;BME280;5176;42.622;25.386;2023-05-20T09:18:41;97480.25;;;19.83;58.28
9439;BME280;5176;42.622;25.386;2023-05-20T09:21:09;97482.50;;;19.78;59.30
9439;BME280;5176;42.622;25.386;2023-05-20T09:23:36;97482.66;;;19.77;58.46
9439;BME280;5176;42.622;25.386;2023-05-20T09:26:05;97488.22;;;19.83;57.71
9439;BME280;5176;42.622;25.386;2023-05-20T09:28:33;97486.78;;;19.89;57.43
9439;BME280;5176;42.622;25.386;2023-05-20T09:31:04;97491.81;;;19.92;57.50
9439;BME280;5176;42.622;25.386;2023-05-20T09:33:33;97497.44;;;19.89;55.93
9439;BME280;5176;42.622;25.386;2023-05-20T09:36:06;97486.91;;;19.70;55.25
9439;BME280;5176;42.622;25.386;2023-05-20T09:38:36;97482.47;;;19.33;54.93
9439;BME280;5176;42.622;25.386;2023-05-20T09:41:08;97484.72;;;19.28;55.90
9439;BME280;5176;42.622;25.386;2023-05-20T09:43:37;97479.81;;;19.33;55.71
9439;BME280;5176;42.622;25.386;2023-05-20T09:46:06;97471.94;;;19.31;53.36
9439;BME280;5176;42.622;25.386;2023-05-20T09:48:35;97468.44;;;19.41;53.36
9439;BME280;5176;42.622;25.386;2023-05-20T09:51:04;97471.19;;;19.49;55.00
9439;BME280;5176;42.622;25.386;2023-05-20T09:53:31;97471.19;;;19.49;54.64
9439;BME280;5176;42.622;25.386;2023-05-20T09:55:59;97454.78;;;19.53;58.17
9439;BME280;5176;42.622;25.386;2023-05-20T09:58:28;97457.56;;;19.62;58.98
9439;BME280;5176;42.622;25.386;2023-05-20T10:00:55;97458.09;;;19.65;59.47
9439;BME280;5176;42.622;25.386;2023-05-20T10:03:23;97453.16;;;19.70;60.61
9439;BME280;5176;42.622;25.386;2023-05-20T10:06:01;97444.31;;;19.79;61.74
9439;BME280;5176;42.622;25.386;2023-05-20T10:11:44;97448.41;;;19.74;61.33
9439;BME280;5176;42.622;25.386;2023-05-20T10:14:32;97444.75;;;19.75;62.09
9439;BME280;5176;42.622;25.386;2023-05-20T10:17:06;97442.25;;;19.73;61.78
9439;BME280;5176;42.622;25.386;2023-05-20T10:19:37;97444.31;;;19.79;62.92
9439;BME280;5176;42.622;25.386;2023-05-20T10:22:05;97443.59;;;19.77;62.99
9439;BME280;5176;42.622;25.386;2023-05-20T10:24:34;97435.34;;;19.80;63.34
9439;BME280;5176;42.622;25.386;2023-05-20T10:27:04;97437.00;;;19.81;64.09
9439;BME280;5176;42.622;25.386;2023-05-20T10:29:43;97429.69;;;19.83;63.64
9439;BME280;5176;42.622;25.386;2023-05-20T10:32:10;97437.69;;;19.83;63.78
9439;BME280;5176;42.622;25.386;2023-05-20T10:34:45;97435.34;;;19.80;62.92
9439;BME280;5176;42.622;25.386;2023-05-20T10:37:22;97430.16;;;19.79;62.50
9439;BME280;5176;42.622;25.386;2023-05-20T10:39:50;97420.97;;;19.73;61.99
9439;BME280;5176;42.622;25.386;2023-05-20T10:42:27;97431.22;;;19.68;61.29
9439;BME280;5176;42.622;25.386;2023-05-20T10:44:56;97429.88;;;19.54;60.07
9439;BME280;5176;42.622;25.386;2023-05-20T10:47:23;97419.50;;;19.61;60.39
9439;BME280;5176;42.622;25.386;2023-05-20T10:49:51;97423.16;;;19.60;61.84
9439;BME280;5176;42.622;25.386;2023-05-20T10:52:19;97423.53;;;19.65;59.70
9439;BME280;5176;42.622;25.386;2023-05-20T10:54:55;97421.69;;;19.66;61.11
9439;BME280;5176;42.622;25.386;2023-05-20T10:57:24;97418.53;;;19.62;60.51
9439;BME280;5176;42.622;25.386;2023-05-20T10:59:52;97420.50;;;19.60;59.83
9439;BME280;5176;42.622;25.386;2023-05-20T11:02:21;97427.47;;;19.61;61.35
9439;BME280;5176;42.622;25.386;2023-05-20T11:04:51;97416.03;;;19.51;57.10
9439;BME280;5176;42.622;25.386;2023-05-20T11:07:25;97415.34;;;19.49;57.22
9439;BME280;5176;42.622;25.386;2023-05-20T11:09:53;97420.81;;;19.47;55.64
9439;BME280;5176;42.622;25.386;2023-05-20T11:12:21;97418.25;;;19.55;57.82
9439;BME280;5176;42.622;25.386;2023-05-20T11:14:49;97418.53;;;19.52;55.64
9439;BME280;5176;42.622;25.386;2023-05-20T11:17:17;97425.38;;;19.55;56.67
9439;BME280;5176;42.622;25.386;2023-05-20T11:19:47;97420.50;;;19.60;58.14
9439;BME280;5176;42.622;25.386;2023-05-20T11:22:14;97418.75;;;19.69;57.96
9439;BME280;5176;42.622;25.386;2023-05-20T11:24:42;97429.53;;;19.85;58.53
9439;BME280;5176;42.622;25.386;2023-05-20T11:27:09;97428.19;;;19.99;60.98
9439;BME280;5176;42.622;25.386;2023-05-20T11:29:36;97420.28;;;20.07;62.27
9439;BME280;5176;42.622;25.386;2023-05-20T11:32:06;97420.38;;;20.15;60.10
9439;BME280;5176;42.622;25.386;2023-05-20T11:34:34;97408.06;;;20.14;61.13
9439;BME280;5176;42.622;25.386;2023-05-20T11:37:06;97422.63;;;20.28;60.80
9439;BME280;5176;42.622;25.386;2023-05-20T11:39:33;97417.69;;;20.33;59.74
9439;BME280;5176;42.622;25.386;2023-05-20T11:42:02;97415.38;;;20.38;58.34
9439;BME280;5176;42.622;25.386;2023-05-20T11:44:30;97417.41;;;20.44;57.28
9439;BME280;5176;42.622;25.386;2023-05-20T11:47:01;97414.53;;;20.37;55.65
9439;BME280;5176;42.622;25.386;2023-05-20T11:49:29;97408.94;;;20.40;56.55
9439;BME280;5176;42.622;25.386;2023-05-20T11:51:56;97413.34;;;20.32;53.73
9439;BME280;5176;42.622;25.386;2023-05-20T11:54:25;97399.66;;;20.27;54.55
9439;BME280;5176;42.622;25.386;2023-05-20T11:56:53;97397.00;;;20.27;52.10
9439;BME280;5176;42.622;25.386;2023-05-20T11:59:23;97396.22;;;20.34;52.30
9439;BME280;5176;42.622;25.386;2023-05-20T12:01:50;97385.75;;;20.33;52.69
9439;BME280;5176;42.622;25.386;2023-05-20T12:04:18;97394.97;;;20.21;53.64
9439;BME280;5176;42.622;25.386;2023-05-20T12:06:45;97394.97;;;20.21;53.59
9439;BME280;5176;42.622;25.386;2023-05-20T12:09:12;97388.19;;;20.26;54.02
9439;BME280;5176;42.622;25.386;2023-05-20T12:11:41;97377.16;;;20.21;52.25
9439;BME280;5176;42.622;25.386;2023-05-20T12:14:10;97386.66;;;20.24;51.82
9439;BME280;5176;42.622;25.386;2023-05-20T12:16:37;97381.88;;;20.27;52.02
9439;BME280;5176;42.622;25.386;2023-05-20T12:19:04;97379.44;;;20.34;53.15
9439;BME280;5176;42.622;25.386;2023-05-20T12:21:33;97379.72;;;20.31;54.70
9439;BME280;5176;42.622;25.386;2023-05-20T12:24:00;97382.72;;;20.28;53.39
9439;BME280;5176;42.622;25.386;2023-05-20T12:26:30;97357.53;;;20.22;54.76
9439;BME280;5176;42.622;25.386;2023-05-20T12:28:59;97370.13;;;20.38;58.67
9439;BME280;5176;42.622;25.386;2023-05-20T12:31:26;97366.16;;;20.42;56.81
9439;BME280;5176;42.622;25.386;2023-05-20T12:33:53;97365.41;;;20.50;57.03
9439;BME280;5176;42.622;25.386;2023-05-20T12:36:21;97360.13;;;20.58;58.63
9439;BME280;5176;42.622;25.386;2023-05-20T12:38:48;97349.69;;;20.64;57.13
9439;BME280;5176;42.622;25.386;2023-05-20T12:41:15;97355.53;;;20.68;57.27
9439;BME280;5176;42.622;25.386;2023-05-20T12:43:43;97344.75;;;20.78;57.47
9439;BME280;5176;42.622;25.386;2023-05-20T12:46:11;97341.66;;;20.90;58.06
9439;BME280;5176;42.622;25.386;2023-05-20T12:48:39;97339.41;;;21.12;57.79
9439;BME280;5176;42.622;25.386;2023-05-20T12:51:06;97323.13;;;21.23;59.97
9439;BME280;5176;42.622;25.386;2023-05-20T12:53:33;97331.69;;;21.35;54.43
9439;BME280;5176;42.622;25.386;2023-05-20T12:56:01;97323.75;;;21.67;52.39
9439;BME280;5176;42.622;25.386;2023-05-20T12:58:28;97325.06;;;22.04;48.02
9439;BME280;5176;42.622;25.386;2023-05-20T13:00:55;97319.09;;;22.02;46.87
9439;BME280;5176;42.622;25.386;2023-05-20T13:03:24;97295.06;;;22.10;49.02
9439;BME280;5176;42.622;25.386;2023-05-20T13:05:51;97300.72;;;22.32;47.69
9439;BME280;5176;42.622;25.386;2023-05-20T13:08:19;97303.66;;;22.61;48.31
9439;BME280;5176;42.622;25.386;2023-05-20T13:10:46;97306.41;;;22.84;49.03
9439;BME280;5176;42.622;25.386;2023-05-20T13:13:13;97299.38;;;22.91;46.26
9439;BME280;5176;42.622;25.386;2023-05-20T13:15:46;97298.97;;;23.10;45.49
9439;BME280;5176;42.622;25.386;2023-05-20T13:18:14;97299.97;;;23.41;47.59